Skip Navigation Links Skip Navigation Links

Current Weather

Eindhoven, Netherlands

For information only: do not use for flight planning or navigation.
Latest weather
Observation time Tuesday, October 19, 2021 9:25 AM CEST
Local time Tuesday, October 19, 2021 9:56 AM CEST
Flight conditions Low Instrument Meteorological Conditions
Winds
Wind direction South (190°)
Wind speed 9 mph
Visibility 2.1 mi.
Present weather drizzle, mist, RADZ
Sky condition
Ceiling 300 ft. overcast
Cloud layer scattered clouds 200 ft.
Cloud layer few clouds 300 ft.
Cloud layer broken clouds 400 ft.
Cloud layer overcast 600 ft.
Temperature 59°F
Dewpoint 59°F
Altimeter 30.03 in.Hg
Derived measurements
Relative humidity 100%
Density altitude 200 ft.
Remarks
Fully automated report.
METAR EHEH 190725Z AUTO 19008KT 3400 R21/P3000U DZ FEW003 BKN004 OVC006 15/15 Q1017 YLO TEMPO 2000 BR RADZ SCT002 OVC003

Settings

Location code

InnerDrive.Weather 4.0.6770.0 Release CLR 4.0.30319.42000
Copyright ©2018 Inner Drive Technology. All rights reserved. Portions Copyright ©1986-2018 David Braverman.

Find weather

Site navigation


Skip Navigation Links

Place info

Page info

PayPal - The safer, easier way to pay online!

Return home.

Copyright ©2021 Inner Drive Technology. Purveyors of fine, hand-crafted computer software. Page printed 2021-10-19T07:56:31 UTC.